Aviation Digital Data Service (ADDS)

Output produced by METARs form (1559 UTC 20 March 2019)
found at http://www.aviationweather.gov/metar/data/
 
Forecast for: YPXM (CHRISTMAS ISL (P, AU)
Text: TAF YPXM 200956Z 2012/2112 15005KT 9999 -SHRA BKN014
Forecast period: 1200 UTC 20 March 2019 to 1200 UTC 21 March 2019
Forecast type: FROM: standard forecast or significant change
Winds: from the SSE (150 degrees) at 6 MPH (5 knots; 2.6 m/s)
Visibility: 6 or more miles 10+ km)
Ceiling: 1400 feet AGL
Clouds: broken clouds at 1400 feet AGL
Weather: -SHRA  (light rain showers)
Text: TEMPO 2012/2112 4000 SHRA BKN010
Forecast period: 1200 UTC 20 March 2019 to 1200 UTC 21 March 2019
Forecast type: TEMPORARY: The following changes expected for less than half the time period
Visibility: 2.49 miles (4.01 km)
Ceiling: 1000 feet AGL
Clouds: broken clouds at 1000 feet AGL
Weather: SHRA  (rain showers)